Time;durP1;ratioP1;P1;durP2;ratioP2;P2;SDS_P1;SDS_P2;PMS_P1;PMS_P2;Temp;Humidity;BMP_temperature;BMP_pressure;BME280_temperature;BME280_humidity;BME280_pressure;Samples;Min_cycle;Max_cycle;Signal;HPM_P1;HPM_P2
2023/03/07 00:00:46;;;;;;;1.67;0.80;;;;;;;;;;4985287;28;20030;-80
2023/03/07 00:03:13;;;;;;;2.50;1.10;;;;;;;;;;4984566;28;20117;-79
2023/03/07 00:05:39;;;;;;;0.75;0.75;;;;;;;;;;4979475;28;20042;-80
2023/03/07 00:08:05;;;;;;;0.95;0.90;;;;;;;;;;4968948;28;20526;-79
2023/03/07 00:10:31;;;;;;;1.33;0.90;;;;;;;;;;4987278;28;20065;-80
2023/03/07 00:12:57;;;;;;;3.17;1.02;;;;;;;;;;4987531;28;20057;-80
2023/03/07 00:15:23;;;;;;;2.70;1.10;;;;;;;;;;4985447;28;20053;-81
2023/03/07 00:17:49;;;;;;;0.73;0.73;;;;;;;;;;4985655;28;20030;-81
2023/03/07 00:20:15;;;;;;;1.58;0.93;;;;;;;;;;4987415;28;20034;-81
2023/03/07 00:22:42;;;;;;;1.35;0.85;;;;;;;;;;4987396;28;20118;-80
2023/03/07 00:25:11;;;;;;;0.82;0.73;;;;;;;;;;4985588;28;20727;-80
2023/03/07 00:27:36;;;;;;;1.63;0.98;;;;;;;;;;4984603;28;20030;-80
2023/03/07 00:30:03;;;;;;;1.33;0.90;;;;;;;;;;4986441;28;20081;-80
2023/03/07 00:32:29;;;;;;;1.05;0.90;;;;;;;;;;4985843;28;20444;-80
2023/03/07 00:34:57;;;;;;;3.00;1.13;;;;;;;;;;4985428;28;20463;-81
2023/03/07 00:37:52;;;;;;;1.05;0.93;;;;;;;;;;4984581;28;20038;-82
2023/03/07 00:40:19;;;;;;;2.13;0.77;;;;;;;;;;4964977;28;20038;-81
2023/03/07 00:42:45;;;;;;;1.63;1.02;;;;;;;;;;4987122;28;20030;-81
2023/03/07 00:45:12;;;;;;;1.33;1.00;;;;;;;;;;4984620;28;20034;-81
2023/03/07 00:47:38;;;;;;;2.03;0.88;;;;;;;;;;4986589;28;20226;-81
2023/03/07 00:50:04;;;;;;;1.48;1.10;;;;;;;;;;4985033;28;20077;-82
2023/03/07 00:52:30;;;;;;;1.25;0.80;;;;;;;;;;4987614;28;20038;-82
2023/03/07 00:54:56;;;;;;;0.90;0.65;;;;;;;;;;4983083;28;20026;-81
2023/03/07 00:57:24;;;;;;;1.42;1.13;;;;;;;;;;4985580;28;20019;-81
2023/03/07 00:59:50;;;;;;;1.85;1.20;;;;;;;;;;4982728;28;20284;-81
2023/03/07 01:02:16;;;;;;;0.80;0.73;;;;;;;;;;4984113;28;20026;-81
2023/03/07 01:04:42;;;;;;;1.40;0.90;;;;;;;;;;4985121;28;20046;-81
2023/03/07 01:07:08;;;;;;;1.35;0.82;;;;;;;;;;4984359;28;20046;-81
2023/03/07 01:09:34;;;;;;;1.75;1.00;;;;;;;;;;4984929;28;20056;-81
2023/03/07 01:12:00;;;;;;;0.98;0.80;;;;;;;;;;4984120;28;20045;-81
2023/03/07 01:14:26;;;;;;;0.80;0.80;;;;;;;;;;4983239;28;20022;-81
2023/03/07 01:16:52;;;;;;;0.68;0.68;;;;;;;;;;4984576;28;20018;-82
2023/03/07 01:19:22;;;;;;;4.60;1.15;;;;;;;;;;4985972;28;20598;-83
2023/03/07 01:21:50;;;;;;;1.67;0.90;;;;;;;;;;4986596;28;20440;-81
2023/03/07 01:24:17;;;;;;;1.65;0.90;;;;;;;;;;4984203;28;20019;-81
2023/03/07 01:26:43;;;;;;;1.25;1.00;;;;;;;;;;4982433;28;20023;-81
2023/03/07 01:29:10;;;;;;;1.17;0.80;;;;;;;;;;4984491;28;20061;-81
2023/03/07 01:31:36;;;;;;;1.38;0.98;;;;;;;;;;4983024;28;20496;-81
2023/03/07 01:34:03;;;;;;;2.15;1.00;;;;;;;;;;4985985;28;20433;-79
2023/03/07 01:36:31;;;;;;;1.25;0.88;;;;;;;;;;4983493;28;20023;-81
2023/03/07 01:39:01;;;;;;;1.65;1.02;;;;;;;;;;4982695;28;20030;-81
2023/03/07 01:41:37;;;;;;;1.70;1.30;;;;;;;;;;4987042;28;20030;-81
2023/03/07 01:44:07;;;;;;;0.98;0.80;;;;;;;;;;4986751;28;20097;-81
2023/03/07 01:46:36;;;;;;;0.90;0.82;;;;;;;;;;4985304;28;20478;-81
2023/03/07 01:49:12;;;;;;;2.58;0.75;;;;;;;;;;4983164;28;20528;-81
2023/03/07 01:51:40;;;;;;;1.08;0.80;;;;;;;;;;4982256;28;20056;-83
2023/03/07 01:54:07;;;;;;;0.82;0.80;;;;;;;;;;4985193;28;20485;-82
2023/03/07 01:56:33;;;;;;;1.10;0.77;;;;;;;;;;4986527;28;20038;-83
2023/03/07 01:58:59;;;;;;;2.47;0.80;;;;;;;;;;4983217;28;20015;-81
2023/03/07 02:01:26;;;;;;;0.80;0.80;;;;;;;;;;4983186;28;21922;-81
2023/03/07 02:04:00;;;;;;;1.10;0.70;;;;;;;;;;4986091;28;20022;-81
2023/03/07 02:06:39;;;;;;;3.83;1.00;;;;;;;;;;4984652;28;20045;-79
2023/03/07 02:09:07;;;;;;;0.95;0.68;;;;;;;;;;4981400;28;20129;-79
2023/03/07 02:11:33;;;;;;;1.33;0.80;;;;;;;;;;4986365;28;20035;-79
2023/03/07 02:13:59;;;;;;;0.70;0.70;;;;;;;;;;4987868;28;20023;-80
2023/03/07 02:16:25;;;;;;;1.15;0.85;;;;;;;;;;4989556;28;20034;-79
2023/03/07 02:18:51;;;;;;;0.93;0.73;;;;;;;;;;4989369;28;20027;-79
2023/03/07 02:21:39;;;;;;;2.35;1.00;;;;;;;;;;4991365;28;20026;-79
2023/03/07 02:24:24;;;;;;;1.52;0.95;;;;;;;;;;4985508;28;20041;-79
2023/03/07 02:26:52;;;;;;;0.98;0.82;;;;;;;;;;4991620;28;20038;-79
2023/03/07 02:29:18;;;;;;;1.48;1.10;;;;;;;;;;4988198;28;20026;-80
2023/03/07 02:31:44;;;;;;;2.10;1.23;;;;;;;;;;4987577;28;21114;-81
2023/03/07 02:34:30;;;;;;;1.10;0.90;;;;;;;;;;4985410;28;20022;-80
2023/03/07 02:36:58;;;;;;;1.13;0.90;;;;;;;;;;4984469;28;20037;-79
2023/03/07 02:39:28;;;;;;;1.52;1.00;;;;;;;;;;4987996;28;20025;-80
2023/03/07 02:41:55;;;;;;;1.75;1.35;;;;;;;;;;4986400;28;20501;-79
2023/03/07 02:44:24;;;;;;;2.15;0.90;;;;;;;;;;4987330;28;20484;-79
2023/03/07 02:46:50;;;;;;;0.98;0.80;;;;;;;;;;4988329;28;20117;-79
2023/03/07 02:49:16;;;;;;;0.90;0.90;;;;;;;;;;4987601;28;20030;-79
2023/03/07 02:51:42;;;;;;;1.45;0.85;;;;;;;;;;4986678;28;20387;-79
2023/03/07 02:54:08;;;;;;;2.15;1.25;;;;;;;;;;4987358;28;20029;-79
2023/03/07 02:56:34;;;;;;;2.10;1.40;;;;;;;;;;4986202;28;20026;-79
2023/03/07 02:59:00;;;;;;;1.73;1.20;;;;;;;;;;4987818;28;20073;-79
2023/03/07 03:01:26;;;;;;;1.48;1.00;;;;;;;;;;4986063;28;20031;-79
2023/03/07 03:03:53;;;;;;;2.08;0.88;;;;;;;;;;4987747;28;20027;-80
2023/03/07 03:06:19;;;;;;;0.85;0.80;;;;;;;;;;4986334;28;20188;-79
2023/03/07 03:08:45;;;;;;;1.80;1.00;;;;;;;;;;4987035;28;20030;-80
2023/03/07 03:11:10;;;;;;;1.75;1.08;;;;;;;;;;4985863;28;20042;-80
2023/03/07 03:13:36;;;;;;;1.73;1.08;;;;;;;;;;4986442;28;20038;-80
2023/03/07 03:16:03;;;;;;;1.48;0.98;;;;;;;;;;4987583;28;20019;-79
2023/03/07 03:18:29;;;;;;;1.55;1.00;;;;;;;;;;4989319;28;20076;-80
2023/03/07 03:20:56;;;;;;;3.38;1.35;;;;;;;;;;4985798;28;20058;-79
2023/03/07 03:23:22;;;;;;;5.63;1.20;;;;;;;;;;4986092;28;20057;-80
2023/03/07 03:26:00;;;;;;;0.82;0.82;;;;;;;;;;4987159;28;20034;-79
2023/03/07 03:28:26;;;;;;;1.80;1.00;;;;;;;;;;4967936;28;20044;-80
2023/03/07 03:30:59;;;;;;;1.23;0.90;;;;;;;;;;4982137;28;20477;-79
2023/03/07 03:33:26;;;;;;;1.02;0.75;;;;;;;;;;4981532;28;20034;-79
2023/03/07 03:35:52;;;;;;;1.58;0.95;;;;;;;;;;4988355;28;20034;-79
2023/03/07 03:38:18;;;;;;;1.42;1.23;;;;;;;;;;4988982;28;20125;-79
2023/03/07 03:40:44;;;;;;;1.48;1.02;;;;;;;;;;4984389;28;20050;-79
2023/03/07 03:43:10;;;;;;;1.10;1.00;;;;;;;;;;4988039;28;21658;-79
2023/03/07 03:45:36;;;;;;;2.63;1.30;;;;;;;;;;4987508;28;20046;-79
2023/03/07 03:48:02;;;;;;;0.75;0.75;;;;;;;;;;4985891;28;20041;-79
2023/03/07 03:50:28;;;;;;;2.15;1.20;;;;;;;;;;4985991;28;20077;-80
2023/03/07 03:52:54;;;;;;;1.13;1.00;;;;;;;;;;4984962;28;20096;-80
2023/03/07 03:55:20;;;;;;;1.30;0.95;;;;;;;;;;4986698;28;20029;-80
2023/03/07 03:57:46;;;;;;;2.88;1.35;;;;;;;;;;4986626;28;20022;-80
2023/03/07 04:00:14;;;;;;;1.20;1.08;;;;;;;;;;4984478;28;20026;-80
2023/03/07 04:02:40;;;;;;;1.70;0.90;;;;;;;;;;4986556;28;20032;-79
2023/03/07 04:05:06;;;;;;;3.17;1.23;;;;;;;;;;4983327;28;20031;-79
2023/03/07 04:07:32;;;;;;;1.90;1.23;;;;;;;;;;4983470;28;20643;-79
2023/03/07 04:09:58;;;;;;;1.35;0.95;;;;;;;;;;4984621;28;20042;-80
2023/03/07 04:12:24;;;;;;;0.93;0.70;;;;;;;;;;4984953;28;20038;-80
2023/03/07 04:14:50;;;;;;;3.25;1.15;;;;;;;;;;4988034;28;20049;-79
2023/03/07 04:17:16;;;;;;;1.63;1.30;;;;;;;;;;4987911;28;20022;-79
2023/03/07 04:19:42;;;;;;;2.85;0.95;;;;;;;;;;4987204;28;20035;-79
2023/03/07 04:22:08;;;;;;;1.90;1.05;;;;;;;;;;4984794;28;20030;-79
2023/03/07 04:24:34;;;;;;;1.70;1.20;;;;;;;;;;4986851;28;20034;-79
2023/03/07 04:27:00;;;;;;;1.95;1.23;;;;;;;;;;4988289;28;20030;-80
2023/03/07 04:29:26;;;;;;;2.13;1.25;;;;;;;;;;4988592;28;20026;-80
2023/03/07 04:31:51;;;;;;;1.50;1.08;;;;;;;;;;4983751;28;20058;-80
2023/03/07 04:34:17;;;;;;;2.13;1.50;;;;;;;;;;4984383;28;20033;-80
2023/03/07 04:36:43;;;;;;;1.20;0.90;;;;;;;;;;4987108;28;20038;-80
2023/03/07 04:39:09;;;;;;;1.58;0.90;;;;;;;;;;4992957;28;20034;-80
2023/03/07 04:41:35;;;;;;;2.28;1.33;;;;;;;;;;4988336;28;20034;-79
2023/03/07 04:44:01;;;;;;;1.50;1.17;;;;;;;;;;4986108;28;20034;-79
2023/03/07 04:46:27;;;;;;;2.15;1.27;;;;;;;;;;4988551;28;20642;-81
2023/03/07 04:48:53;;;;;;;1.52;1.10;;;;;;;;;;4988788;28;20444;-80
2023/03/07 04:51:19;;;;;;;1.45;0.90;;;;;;;;;;4988043;28;20073;-81
2023/03/07 04:53:45;;;;;;;1.65;1.20;;;;;;;;;;4985483;28;20037;-80
2023/03/07 04:56:12;;;;;;;1.63;1.00;;;;;;;;;;4980190;28;20033;-80
2023/03/07 04:58:38;;;;;;;2.25;1.48;;;;;;;;;;4985454;28;20134;-80
2023/03/07 05:01:07;;;;;;;1.65;1.20;;;;;;;;;;4987658;28;20014;-80
2023/03/07 05:03:34;;;;;;;1.50;1.38;;;;;;;;;;4987892;28;20077;-79
2023/03/07 05:06:01;;;;;;;3.03;1.60;;;;;;;;;;4985271;28;21449;-79
2023/03/07 05:08:27;;;;;;;1.35;0.90;;;;;;;;;;4988058;28;20058;-79
2023/03/07 05:10:53;;;;;;;1.77;1.08;;;;;;;;;;4987779;28;20057;-80
2023/03/07 05:13:19;;;;;;;2.85;1.17;;;;;;;;;;4987793;28;20531;-80
2023/03/07 05:15:49;;;;;;;1.95;1.60;;;;;;;;;;4983998;28;20022;-79
2023/03/07 05:18:15;;;;;;;1.33;1.00;;;;;;;;;;4982127;28;20787;-79
2023/03/07 05:20:42;;;;;;;1.60;1.08;;;;;;;;;;4987956;28;20438;-79
2023/03/07 05:23:08;;;;;;;1.27;1.10;;;;;;;;;;4988035;28;20081;-79
2023/03/07 05:25:33;;;;;;;1.35;1.08;;;;;;;;;;4985149;28;20042;-79
2023/03/07 05:27:59;;;;;;;1.92;1.25;;;;;;;;;;4986780;28;20038;-79
2023/03/07 05:30:25;;;;;;;1.55;1.15;;;;;;;;;;4987451;28;20035;-79
2023/03/07 05:32:51;;;;;;;1.17;1.08;;;;;;;;;;4988057;28;20038;-79
2023/03/07 05:35:18;;;;;;;0.93;0.85;;;;;;;;;;4986411;28;20133;-79
2023/03/07 05:37:44;;;;;;;1.77;1.27;;;;;;;;;;4984222;28;20820;-79
2023/03/07 05:40:11;;;;;;;2.45;1.35;;;;;;;;;;4986863;28;20022;-79
2023/03/07 05:42:37;;;;;;;1.40;1.13;;;;;;;;;;4986590;28;20029;-79
2023/03/07 05:45:04;;;;;;;1.25;1.13;;;;;;;;;;4985123;28;20117;-79
2023/03/07 05:47:33;;;;;;;3.30;1.42;;;;;;;;;;4984193;28;20045;-79
2023/03/07 05:49:59;;;;;;;2.40;1.15;;;;;;;;;;4987489;28;20027;-79
2023/03/07 05:52:25;;;;;;;2.78;1.15;;;;;;;;;;4986755;28;20474;-79
2023/03/07 05:54:51;;;;;;;2.10;1.25;;;;;;;;;;4984932;28;20052;-79
2023/03/07 05:57:17;;;;;;;2.03;1.38;;;;;;;;;;4984928;28;20501;-80
2023/03/07 05:59:43;;;;;;;1.08;0.90;;;;;;;;;;4986116;28;20409;-78
2023/03/07 06:02:09;;;;;;;1.38;0.93;;;;;;;;;;4985176;28;20362;-79
2023/03/07 06:04:35;;;;;;;1.77;0.98;;;;;;;;;;4985021;28;20018;-78
2023/03/07 06:07:02;;;;;;;1.63;1.20;;;;;;;;;;4985320;28;20030;-78
2023/03/07 06:09:28;;;;;;;3.78;1.25;;;;;;;;;;4982041;28;20069;-79
2023/03/07 06:11:54;;;;;;;2.03;1.30;;;;;;;;;;4983673;28;20465;-79
2023/03/07 06:14:19;;;;;;;2.03;1.55;;;;;;;;;;4985186;28;21225;-79
2023/03/07 06:16:45;;;;;;;1.40;0.95;;;;;;;;;;4984078;28;20623;-79
2023/03/07 06:19:11;;;;;;;1.73;0.93;;;;;;;;;;4986255;28;20054;-79
2023/03/07 06:21:38;;;;;;;2.58;1.25;;;;;;;;;;4986298;28;20112;-79
2023/03/07 06:24:06;;;;;;;2.28;1.17;;;;;;;;;;4984698;28;20022;-80
2023/03/07 06:26:32;;;;;;;1.40;0.93;;;;;;;;;;4985032;28;20064;-75
2023/03/07 06:28:58;;;;;;;1.67;1.13;;;;;;;;;;4983785;28;20037;-76
2023/03/07 06:31:24;;;;;;;2.05;1.13;;;;;;;;;;4987360;28;20118;-77
2023/03/07 06:33:50;;;;;;;2.70;1.00;;;;;;;;;;4987073;28;20042;-76
2023/03/07 06:36:20;;;;;;;1.88;1.17;;;;;;;;;;4984203;28;20120;-76
2023/03/07 06:38:46;;;;;;;0.95;0.88;;;;;;;;;;4979006;28;20033;-76
2023/03/07 06:41:12;;;;;;;1.02;0.90;;;;;;;;;;4984295;28;20449;-76
2023/03/07 06:43:38;;;;;;;1.60;1.10;;;;;;;;;;4985084;28;20042;-76
2023/03/07 06:46:06;;;;;;;1.98;1.13;;;;;;;;;;4985537;28;20129;-76
2023/03/07 06:48:33;;;;;;;1.38;1.08;;;;;;;;;;4983964;28;20033;-75
2023/03/07 06:50:59;;;;;;;1.65;0.75;;;;;;;;;;4978505;28;20477;-76
2023/03/07 06:53:48;;;;;;;2.03;1.17;;;;;;;;;;4981874;28;20041;-76
2023/03/07 06:56:14;;;;;;;0.85;0.77;;;;;;;;;;4984095;28;20065;-76
2023/03/07 06:58:40;;;;;;;0.80;0.80;;;;;;;;;;4997579;28;20041;-76
2023/03/07 07:01:06;;;;;;;1.30;0.90;;;;;;;;;;4989486;28;20886;-75
2023/03/07 07:03:32;;;;;;;2.60;1.02;;;;;;;;;;4990289;28;20030;-76
2023/03/07 07:05:58;;;;;;;3.83;1.15;;;;;;;;;;4990821;28;20054;-76
2023/03/07 07:08:24;;;;;;;2.45;1.00;;;;;;;;;;4989206;28;20038;-76
2023/03/07 07:10:50;;;;;;;1.00;0.90;;;;;;;;;;4990494;28;20078;-75
2023/03/07 07:13:16;;;;;;;2.03;1.27;;;;;;;;;;4988259;28;20034;-75
2023/03/07 07:15:42;;;;;;;3.05;1.10;;;;;;;;;;4990434;28;20026;-75
2023/03/07 07:18:10;;;;;;;2.47;1.27;;;;;;;;;;4989259;28;20061;-75
2023/03/07 07:20:36;;;;;;;1.73;1.20;;;;;;;;;;4990335;28;20220;-75
2023/03/07 07:23:02;;;;;;;1.55;1.15;;;;;;;;;;4988054;28;20031;-76
2023/03/07 07:25:28;;;;;;;1.65;1.20;;;;;;;;;;4989807;28;20050;-75
2023/03/07 07:27:54;;;;;;;1.38;0.90;;;;;;;;;;4989005;28;20521;-76
2023/03/07 07:30:20;;;;;;;2.45;1.30;;;;;;;;;;4989548;28;20080;-76
2023/03/07 07:32:46;;;;;;;1.27;1.02;;;;;;;;;;4986425;28;20015;-75
2023/03/07 07:35:12;;;;;;;1.48;0.98;;;;;;;;;;4989668;28;20040;-76
2023/03/07 07:37:39;;;;;;;4.38;1.58;;;;;;;;;;4989994;28;20489;-75
2023/03/07 07:40:05;;;;;;;2.08;1.10;;;;;;;;;;4990059;28;20072;-75
2023/03/07 07:42:31;;;;;;;1.23;1.13;;;;;;;;;;4996010;28;20069;-76
2023/03/07 07:44:57;;;;;;;2.10;1.00;;;;;;;;;;4981614;28;20026;-75
2023/03/07 07:47:23;;;;;;;1.58;1.13;;;;;;;;;;4983926;28;20038;-73
2023/03/07 07:49:49;;;;;;;1.35;1.17;;;;;;;;;;4988178;28;20042;-74
2023/03/07 07:52:15;;;;;;;1.77;1.15;;;;;;;;;;4989545;28;20026;-74
2023/03/07 07:54:41;;;;;;;1.42;1.13;;;;;;;;;;4988436;28;20030;-74
2023/03/07 07:57:07;;;;;;;1.65;1.40;;;;;;;;;;4981004;28;20429;-74
2023/03/07 07:59:33;;;;;;;1.35;0.95;;;;;;;;;;4985457;28;20057;-74
2023/03/07 08:02:02;;;;;;;2.40;1.13;;;;;;;;;;4984393;28;20045;-75
2023/03/07 08:04:28;;;;;;;2.28;1.48;;;;;;;;;;4985004;28;20401;-74
2023/03/07 08:06:54;;;;;;;1.55;0.82;;;;;;;;;;4979962;28;20420;-74
2023/03/07 08:09:21;;;;;;;1.92;1.70;;;;;;;;;;4969677;28;20227;-75
2023/03/07 08:11:47;;;;;;;3.05;1.42;;;;;;;;;;4988295;28;20085;-74
2023/03/07 08:14:13;;;;;;;5.05;1.30;;;;;;;;;;4986130;28;20089;-73
2023/03/07 08:16:39;;;;;;;2.08;1.20;;;;;;;;;;4996498;28;20041;-74
2023/03/07 08:19:05;;;;;;;1.48;0.98;;;;;;;;;;4982481;28;20038;-76
2023/03/07 08:21:31;;;;;;;1.10;1.00;;;;;;;;;;4984694;28;20031;-75
2023/03/07 08:23:57;;;;;;;1.30;0.98;;;;;;;;;;4985610;28;20022;-72
2023/03/07 08:26:24;;;;;;;1.38;1.05;;;;;;;;;;4986555;28;20125;-81
2023/03/07 08:28:50;;;;;;;1.85;1.17;;;;;;;;;;4986624;28;20052;-80
2023/03/07 08:31:17;;;;;;;2.40;1.13;;;;;;;;;;4985852;28;20220;-76
2023/03/07 08:33:45;;;;;;;1.67;1.10;;;;;;;;;;4985734;28;20396;-78
2023/03/07 08:36:11;;;;;;;1.38;1.08;;;;;;;;;;4982750;28;20038;-77
2023/03/07 08:38:37;;;;;;;1.00;0.82;;;;;;;;;;4979706;28;20011;-87
2023/03/07 08:41:04;;;;;;;1.75;1.25;;;;;;;;;;4987411;28;20023;-74
2023/03/07 08:43:31;;;;;;;1.45;1.20;;;;;;;;;;4984743;28;20018;-79
2023/03/07 08:45:58;;;;;;;2.33;1.20;;;;;;;;;;4986778;28;20027;-79
2023/03/07 08:48:24;;;;;;;2.72;0.85;;;;;;;;;;4983150;28;20520;-81
2023/03/07 08:50:50;;;;;;;1.08;0.85;;;;;;;;;;4985357;28;20038;-77
2023/03/07 08:53:16;;;;;;;1.52;0.70;;;;;;;;;;4988614;28;20121;-82
2023/03/07 08:55:42;;;;;;;3.90;0.90;;;;;;;;;;4983738;28;20109;-76
2023/03/07 08:58:09;;;;;;;2.05;1.05;;;;;;;;;;4984342;28;20026;-77
2023/03/07 09:00:36;;;;;;;1.95;1.38;;;;;;;;;;4981567;28;20037;-77
2023/03/07 09:03:02;;;;;;;1.70;1.02;;;;;;;;;;4981900;28;20529;-74
2023/03/07 09:05:28;;;;;;;2.65;0.90;;;;;;;;;;4984012;28;20563;-75
2023/03/07 09:07:54;;;;;;;1.00;0.90;;;;;;;;;;4996204;28;20044;-76
2023/03/07 09:10:21;;;;;;;2.15;0.90;;;;;;;;;;4984377;28;20050;-76
2023/03/07 09:12:47;;;;;;;0.70;0.70;;;;;;;;;;4987666;28;20994;-76
2023/03/07 09:15:13;;;;;;;1.42;0.88;;;;;;;;;;4984038;28;20832;-75
2023/03/07 09:17:39;;;;;;;2.22;0.85;;;;;;;;;;4985308;28;20831;-74
2023/03/07 09:20:06;;;;;;;1.30;0.95;;;;;;;;;;4992460;28;20117;-72
2023/03/07 09:22:35;;;;;;;1.20;1.10;;;;;;;;;;4984565;28;20077;-72
2023/03/07 09:25:01;;;;;;;1.65;1.17;;;;;;;;;;4982514;28;20490;-72
2023/03/07 09:27:27;;;;;;;1.15;1.05;;;;;;;;;;4986252;28;20030;-73
2023/03/07 09:29:53;;;;;;;1.33;0.90;;;;;;;;;;4982882;28;20049;-73
2023/03/07 09:32:19;;;;;;;5.30;0.90;;;;;;;;;;4984789;28;20472;-73
2023/03/07 09:34:45;;;;;;;2.53;1.17;;;;;;;;;;4985661;28;20026;-75
2023/03/07 09:37:11;;;;;;;1.60;1.00;;;;;;;;;;4990880;28;20357;-75
2023/03/07 09:39:37;;;;;;;3.53;2.08;;;;;;;;;;4981873;28;20038;-77
2023/03/07 09:42:06;;;;;;;1.30;0.90;;;;;;;;;;4989518;28;20054;-78
2023/03/07 09:44:44;;;;;;;1.08;0.60;;;;;;;;;;4979004;28;20035;-76
2023/03/07 09:47:19;;;;;;;3.28;1.95;;;;;;;;;;4985500;28;20018;-76
2023/03/07 09:49:52;;;;;;;0.95;0.70;;;;;;;;;;4977870;28;20078;-76
2023/03/07 09:52:24;;;;;;;1.45;0.85;;;;;;;;;;4985816;28;20030;-71
2023/03/07 09:54:58;;;;;;;1.10;0.90;;;;;;;;;;4983416;28;20466;-73
2023/03/07 09:57:31;;;;;;;1.08;0.90;;;;;;;;;;4985781;28;20046;-73
2023/03/07 10:00:04;;;;;;;1.05;0.75;;;;;;;;;;4967736;28;20034;-74
2023/03/07 10:02:36;;;;;;;1.25;0.85;;;;;;;;;;4986329;28;20097;-74
2023/03/07 10:05:05;;;;;;;2.08;1.17;;;;;;;;;;4982507;28;20551;-74
2023/03/07 10:07:32;;;;;;;1.48;0.85;;;;;;;;;;4981744;28;20034;-74
2023/03/07 10:10:02;;;;;;;2.65;1.02;;;;;;;;;;4985777;28;20054;-74
2023/03/07 10:12:31;;;;;;;1.77;1.00;;;;;;;;;;4984923;28;20097;-74
2023/03/07 10:15:02;;;;;;;1.17;1.08;;;;;;;;;;4986677;28;20058;-74
2023/03/07 10:17:47;;;;;;;1.88;1.00;;;;;;;;;;4993043;28;20022;-74
2023/03/07 10:20:27;;;;;;;1.52;1.02;;;;;;;;;;4967678;28;20026;-74
2023/03/07 10:22:59;;;;;;;0.52;0.52;;;;;;;;;;4981466;28;20057;-73
2023/03/07 10:25:27;;;;;;;1.67;1.08;;;;;;;;;;4985741;28;20362;-72
2023/03/07 10:27:59;;;;;;;3.10;0.52;;;;;;;;;;4969210;28;20041;-73
2023/03/07 10:30:25;;;;;;;1.40;0.70;;;;;;;;;;4971536;28;20043;-74
2023/03/07 10:32:58;;;;;;;0.80;0.70;;;;;;;;;;4987776;28;20508;-73
2023/03/07 10:35:37;;;;;;;6.88;1.10;;;;;;;;;;4987674;28;20665;-74
2023/03/07 10:38:09;;;;;;;2.58;0.80;;;;;;;;;;4985740;28;20027;-74
2023/03/07 10:40:40;;;;;;;2.20;0.77;;;;;;;;;;4990875;28;20381;-73
2023/03/07 10:43:16;;;;;;;2.05;0.98;;;;;;;;;;4989532;28;20023;-73
2023/03/07 10:45:42;;;;;;;0.82;0.73;;;;;;;;;;4985035;28;20062;-72
2023/03/07 10:48:15;;;;;;;0.85;0.55;;;;;;;;;;4988384;28;20081;-72
2023/03/07 10:50:49;;;;;;;2.63;0.70;;;;;;;;;;4988509;28;20059;-73
2023/03/07 10:53:30;;;;;;;1.30;0.80;;;;;;;;;;4985985;28;20085;-72
2023/03/07 10:56:09;;;;;;;1.80;0.60;;;;;;;;;;4986278;28;20336;-72
2023/03/07 10:58:36;;;;;;;3.60;1.33;;;;;;;;;;4993127;28;20037;-72
2023/03/07 11:01:02;;;;;;;1.00;0.88;;;;;;;;;;4988869;28;20074;-72
2023/03/07 11:03:43;;;;;;;0.50;0.50;;;;;;;;;;4989331;28;20433;-72
2023/03/07 11:06:09;;;;;;;;;;;;;;;;;;4988308;28;20511;-74
2023/03/07 11:08:36;;;;;;;0.40;0.40;;;;;;;;;;4987840;28;19996;-75
2023/03/07 11:11:03;;;;;;;0.60;0.60;;;;;;;;;;4989493;28;20161;-75
2023/03/07 11:13:30;;;;;;;1.10;0.60;;;;;;;;;;4993177;28;20030;-73
2023/03/07 11:16:14;;;;;;;6.35;0.90;;;;;;;;;;4986327;28;20460;-73
2023/03/07 11:18:44;;;;;;;0.68;0.47;;;;;;;;;;4984475;28;20080;-72
2023/03/07 11:21:30;;;;;;;0.65;0.65;;;;;;;;;;4971208;28;20018;-74
2023/03/07 11:24:03;;;;;;;0.65;0.50;;;;;;;;;;4992291;28;20531;-73
2023/03/07 11:26:31;;;;;;;2.95;0.88;;;;;;;;;;4988618;28;20567;-74
2023/03/07 11:29:06;;;;;;;0.40;0.40;;;;;;;;;;4990311;28;20057;-74
2023/03/07 11:31:35;;;;;;;0.82;0.45;;;;;;;;;;4989697;28;20025;-74
2023/03/07 11:34:26;;;;;;;5.30;1.90;;;;;;;;;;4991190;28;20030;-74
2023/03/07 11:36:56;;;;;;;1.30;0.50;;;;;;;;;;4989585;28;20105;-74
2023/03/07 11:39:28;;;;;;;0.82;0.50;;;;;;;;;;4987363;28;20033;-75
2023/03/07 11:41:57;;;;;;;1.70;0.60;;;;;;;;;;4986861;28;20042;-74
2023/03/07 11:44:32;;;;;;;0.80;0.80;;;;;;;;;;4969253;28;20040;-74
2023/03/07 11:47:07;;;;;;;0.40;0.30;;;;;;;;;;4989452;28;20166;-73
2023/03/07 11:49:44;;;;;;;0.80;0.50;;;;;;;;;;4986685;28;20072;-74
2023/03/07 11:52:31;;;;;;;0.40;0.40;;;;;;;;;;4982988;28;20034;-74
2023/03/07 11:55:03;;;;;;;0.38;0.38;;;;;;;;;;4983423;28;20049;-75
2023/03/07 11:57:48;;;;;;;1.33;0.60;;;;;;;;;;4987899;28;20488;-74
2023/03/07 12:00:14;;;;;;;0.60;0.60;;;;;;;;;;4985077;28;20068;-75
2023/03/07 12:02:59;;;;;;;0.70;0.30;;;;;;;;;;4987276;28;20484;-75
2023/03/07 12:05:37;;;;;;;0.30;0.30;;;;;;;;;;4986115;28;20438;-73
2023/03/07 12:08:03;;;;;;;0.38;0.38;;;;;;;;;;4986872;28;20029;-73
2023/03/07 12:10:47;;;;;;;1.05;0.60;;;;;;;;;;4988642;28;20656;-73
2023/03/07 12:13:27;;;;;;;0.40;0.40;;;;;;;;;;4984219;28;22118;-74
2023/03/07 12:16:09;;;;;;;1.58;0.70;;;;;;;;;;4985821;28;20038;-73
2023/03/07 12:18:54;;;;;;;0.60;0.60;;;;;;;;;;4987901;28;20379;-73
2023/03/07 12:21:29;;;;;;;1.92;1.50;;;;;;;;;;4989340;28;20041;-73
2023/03/07 12:24:06;;;;;;;2.90;1.92;;;;;;;;;;4987608;28;20627;-73
2023/03/07 12:26:44;;;;;;;5.45;3.25;;;;;;;;;;4985482;28;20062;-73
2023/03/07 12:29:24;;;;;;;4.53;2.67;;;;;;;;;;4976340;28;20049;-73
2023/03/07 12:31:52;;;;;;;8.00;3.60;;;;;;;;;;4993127;28;20758;-73
2023/03/07 12:34:40;;;;;;;8.93;5.47;;;;;;;;;;4985063;28;20062;-73
2023/03/07 12:37:09;;;;;;;8.60;5.55;;;;;;;;;;4983429;28;20170;-72
2023/03/07 12:39:57;;;;;;;9.23;4.90;;;;;;;;;;4984523;28;20053;-75
2023/03/07 12:42:23;;;;;;;14.48;6.32;;;;;;;;;;4988287;28;20032;-73
2023/03/07 12:44:58;;;;;;;10.05;6.03;;;;;;;;;;4988065;28;20034;-73
2023/03/07 12:47:29;;;;;;;8.73;5.55;;;;;;;;;;4985907;28;20077;-75
2023/03/07 12:49:55;;;;;;;;;;;;;;;;;;4963340;28;20034;-75
2023/03/07 12:52:41;;;;;;;9.02;5.13;;;;;;;;;;4982385;28;19955;-75
2023/03/07 12:55:14;;;;;;;7.78;4.85;;;;;;;;;;4983076;28;20081;-75
2023/03/07 12:57:42;;;;;;;10.07;5.35;;;;;;;;;;4982871;28;20107;-75
2023/03/07 13:00:10;;;;;;;8.05;5.20;;;;;;;;;;4985830;28;20025;-73
2023/03/07 13:02:43;;;;;;;10.05;5.80;;;;;;;;;;4984851;28;20069;-74
2023/03/07 13:05:16;;;;;;;16.15;6.57;;;;;;;;;;4984642;28;20203;-74
2023/03/07 13:07:43;;;;;;;10.13;5.93;;;;;;;;;;4979414;28;20035;-74
2023/03/07 13:10:14;;;;;;;10.88;6.38;;;;;;;;;;4986956;28;20408;-73
2023/03/07 13:12:40;;;;;;;11.50;5.30;;;;;;;;;;4981646;28;20047;-73
2023/03/07 13:15:18;;;;;;;7.72;4.40;;;;;;;;;;4985890;28;20337;-73
2023/03/07 13:17:44;;;;;;;10.18;5.45;;;;;;;;;;4985324;28;20096;-74
2023/03/07 13:20:17;;;;;;;12.20;5.97;;;;;;;;;;4986451;28;20504;-73
2023/03/07 13:22:42;;;;;;;10.27;5.80;;;;;;;;;;4987789;28;20046;-73
2023/03/07 13:25:34;;;;;;;10.35;5.85;;;;;;;;;;4981204;28;20038;-73
2023/03/07 13:28:01;;;;;;;10.52;6.07;;;;;;;;;;4981708;28;20121;-74
2023/03/07 13:30:30;;;;;;;15.30;5.55;;;;;;;;;;4986338;28;20049;-74
2023/03/07 13:32:59;;;;;;;8.57;6.15;;;;;;;;;;4984603;28;20032;-74
2023/03/07 13:35:27;;;;;;;8.85;5.35;;;;;;;;;;4984464;28;20069;-74
2023/03/07 13:37:56;;;;;;;9.95;5.63;;;;;;;;;;4987339;28;20049;-73
2023/03/07 13:40:24;;;;;;;8.45;5.70;;;;;;;;;;4986595;28;20025;-74
2023/03/07 13:42:51;;;;;;;9.07;4.95;;;;;;;;;;4987641;28;20462;-74
2023/03/07 13:45:35;;;;;;;10.38;6.30;;;;;;;;;;4986290;28;20046;-73
2023/03/07 13:48:04;;;;;;;8.02;5.28;;;;;;;;;;4985722;28;20116;-74
2023/03/07 13:50:33;;;;;;;8.45;5.10;;;;;;;;;;4986405;28;20556;-73
2023/03/07 13:53:07;;;;;;;6.95;5.05;;;;;;;;;;4984938;28;20032;-74
2023/03/07 13:55:39;;;;;;;8.80;5.07;;;;;;;;;;4985757;28;20053;-73
2023/03/07 13:58:04;;;;;;;;;;;;;;;;;;4985635;28;20045;-73
2023/03/07 14:00:32;;;;;;;8.02;5.03;;;;;;;;;;4983811;28;19910;-74
2023/03/07 14:02:58;;;;;;;7.35;4.60;;;;;;;;;;4983097;28;20080;-74
2023/03/07 14:05:24;;;;;;;8.80;4.93;;;;;;;;;;4986735;28;20446;-73
2023/03/07 14:07:51;;;;;;;10.20;4.95;;;;;;;;;;4990117;28;20022;-74
2023/03/07 14:10:44;;;;;;;6.55;4.97;;;;;;;;;;4983672;28;20517;-74
2023/03/07 14:13:13;;;;;;;6.05;4.22;;;;;;;;;;4989202;28;20054;-74
2023/03/07 14:15:48;;;;;;;10.60;5.05;;;;;;;;;;4991007;28;20036;-74
2023/03/07 14:18:30;;;;;;;6.90;4.90;;;;;;;;;;4987883;28;20037;-74
2023/03/07 14:20:56;;;;;;;5.97;3.90;;;;;;;;;;4992085;28;20157;-74
2023/03/07 14:23:29;;;;;;;8.20;4.68;;;;;;;;;;4986206;28;20042;-74
2023/03/07 14:26:02;;;;;;;9.65;4.82;;;;;;;;;;4989773;28;20061;-74
2023/03/07 14:28:28;;;;;;;7.47;4.10;;;;;;;;;;4988253;28;20583;-74
2023/03/07 14:30:58;;;;;;;8.38;4.40;;;;;;;;;;4987822;28;20026;-74
2023/03/07 14:33:32;;;;;;;8.10;4.72;;;;;;;;;;4990938;28;20028;-74
2023/03/07 14:35:58;;;;;;;8.02;4.28;;;;;;;;;;4986103;28;20030;-74
2023/03/07 14:38:24;;;;;;;7.22;4.13;;;;;;;;;;4988764;28;20064;-74
2023/03/07 14:40:54;;;;;;;6.65;3.90;;;;;;;;;;4991035;28;20130;-74
2023/03/07 14:43:38;;;;;;;4.93;3.40;;;;;;;;;;4989744;28;20027;-74
2023/03/07 14:46:19;;;;;;;5.30;3.72;;;;;;;;;;4989599;28;20504;-75
2023/03/07 14:49:00;;;;;;;6.63;3.55;;;;;;;;;;4970696;28;20089;-74
2023/03/07 14:51:28;;;;;;;5.45;3.70;;;;;;;;;;4987472;28;20061;-73
2023/03/07 14:53:55;;;;;;;5.90;3.50;;;;;;;;;;4988993;28;20018;-74